Time;durP1;ratioP1;P1;durP2;ratioP2;P2;SDS_P1;SDS_P2;PMS_P1;PMS_P2;Temp;Humidity;BMP_temperature;BMP_pressure;BME280_temperature;BME280_humidity;BME280_pressure;Samples;Min_cycle;Max_cycle;Signal;HPM_P1;HPM_P2
2023/05/01 00:02:00;;;;;;;13.57;9.90;;;;;;;11.86;85.33;98087.41;4166036;28;20709;-85
2023/05/01 00:04:03;;;;;;;12.93;9.30;;;;;;;11.86;85.41;98087.41;4174062;28;20638;-85
2023/05/01 00:06:07;;;;;;;10.50;9.40;;;;;;;11.88;86.71;98088.13;4171481;28;20759;-85
2023/05/01 00:08:10;;;;;;;10.97;9.87;;;;;;;11.87;86.68;98079.44;4170049;28;20649;-85
2023/05/01 00:10:13;;;;;;;10.03;9.13;;;;;;;11.89;86.19;98077.56;4174076;28;20747;-85
2023/05/01 00:12:17;;;;;;;10.70;9.60;;;;;;;11.87;86.19;98082.06;4167154;28;21546;-85
2023/05/01 00:14:20;;;;;;;10.77;9.50;;;;;;;11.86;86.99;98077.81;4170081;28;21290;-85
2023/05/01 00:16:23;;;;;;;10.93;9.93;;;;;;;11.84;86.45;98079.66;4169933;28;20645;-85
2023/05/01 00:18:29;;;;;;;11.20;10.10;;;;;;;11.83;85.21;98078.03;4167184;28;20691;-85
2023/05/01 00:20:32;;;;;;;11.03;9.90;;;;;;;11.83;85.27;98071.94;4165227;28;20652;-85
2023/05/01 00:22:35;;;;;;;13.93;10.87;;;;;;;11.83;86.84;98071.94;4168585;28;20659;-85
2023/05/01 00:24:38;;;;;;;12.70;11.40;;;;;;;11.82;86.48;98065.06;4164972;28;21208;-85
2023/05/01 00:26:42;;;;;;;12.77;11.47;;;;;;;11.81;85.60;98066.81;4166082;28;20677;-85
2023/05/01 00:28:45;;;;;;;14.57;11.97;;;;;;;11.80;86.34;98064.31;4167784;28;20645;-85
2023/05/01 00:30:48;;;;;;;16.90;12.43;;;;;;;11.78;87.33;98069.66;4168084;28;21454;-85
2023/05/01 00:32:51;;;;;;;13.47;12.03;;;;;;;11.78;85.38;98064.44;4170269;28;20643;-85
2023/05/01 00:34:56;;;;;;;14.10;12.67;;;;;;;11.77;85.90;98056.72;4168401;28;21275;-85
2023/05/01 00:36:59;;;;;;;13.80;11.90;;;;;;;11.77;87.19;98054.09;4171757;28;21239;-85
2023/05/01 00:39:02;;;;;;;13.50;12.10;;;;;;;11.75;85.61;98056.81;4155541;28;21343;-85
2023/05/01 00:41:05;;;;;;;12.90;11.60;;;;;;;11.73;86.93;98047.44;4169758;28;21316;-86
2023/05/01 00:43:08;;;;;;;15.37;11.80;;;;;;;11.70;85.67;98049.44;4166537;28;21248;-85
2023/05/01 00:45:13;;;;;;;12.23;11.03;;;;;;;11.69;87.08;98053.84;4167327;28;21021;-85
2023/05/01 00:47:16;;;;;;;13.03;11.67;;;;;;;11.67;85.27;98044.47;4168809;28;20651;-85
2023/05/01 00:49:19;;;;;;;12.07;10.77;;;;;;;11.65;86.89;98047.19;4163499;28;21400;-85
2023/05/01 00:51:24;;;;;;;13.50;9.70;;;;;;;11.64;85.26;98045.50;4147296;28;20721;-85
2023/05/01 00:53:27;;;;;;;12.20;10.30;;;;;;;11.57;86.36;98041.66;4155215;28;20670;-85
2023/05/01 00:55:31;;;;;;;12.23;11.13;;;;;;;11.49;87.05;98038.78;4171902;28;20640;-85
2023/05/01 00:57:35;;;;;;;12.83;9.73;;;;;;;11.40;86.92;98036.81;4168426;28;20698;-85
2023/05/01 00:59:38;;;;;;;11.70;10.50;;;;;;;11.34;86.45;98032.03;4170333;28;21263;-86
2023/05/01 01:01:42;;;;;;;11.70;10.50;;;;;;;11.27;86.83;98025.59;4167612;28;20637;-85
2023/05/01 01:03:45;;;;;;;11.40;9.70;;;;;;;11.24;87.95;98030.19;4168731;28;20668;-85
2023/05/01 01:05:54;;;;;;;12.80;10.00;;;;;;;11.17;88.01;98018.53;4168061;28;21178;-85
2023/05/01 01:08:05;;;;;;;12.67;10.83;;;;;;;11.15;87.38;98020.41;4148868;28;20665;-86
2023/05/01 01:10:18;;;;;;;11.30;10.20;;;;;;;11.19;88.19;98018.44;4164311;28;20764;-86
2023/05/01 01:12:25;;;;;;;14.13;10.80;;;;;;;11.17;87.24;98015.94;4162322;28;20678;-86
2023/05/01 01:14:33;;;;;;;10.63;9.50;;;;;;;11.16;88.35;98014.25;4167315;28;20773;-86
2023/05/01 01:16:42;;;;;;;11.40;10.30;;;;;;;11.15;88.06;98014.38;4165583;28;22119;-85
2023/05/01 01:18:50;;;;;;;11.07;9.90;;;;;;;11.11;87.15;98007.69;4151624;28;21294;-86
2023/05/01 01:20:56;;;;;;;12.57;10.00;;;;;;;11.10;86.57;98008.66;4167850;28;20648;-86
2023/05/01 01:23:13;;;;;;;12.47;10.00;;;;;;;11.13;88.30;98009.25;4170311;28;20750;-85
2023/05/01 01:25:53;;;;;;;10.87;9.87;;;;;;;11.13;86.75;98009.25;4168848;28;20628;-85
2023/05/01 01:28:11;;;;;;;11.40;10.20;;;;;;;11.15;87.18;97998.72;4113006;28;20650;-85
2023/05/01 01:30:43;;;;;;;11.33;10.23;;;;;;;11.17;86.53;98008.09;4166583;28;20629;-86
2023/05/01 01:33:09;;;;;;;10.40;9.40;;;;;;;11.19;87.97;98001.00;4169159;28;21183;-86
2023/05/01 01:35:20;;;;;;;12.17;10.43;;;;;;;11.20;86.43;98012.25;4169706;28;21086;-86
2023/05/01 01:37:26;;;;;;;10.70;9.60;;;;;;;11.18;87.40;98007.16;4166529;28;20648;-86
2023/05/01 01:39:33;;;;;;;10.07;9.10;;;;;;;11.18;86.59;98014.16;4160835;28;20691;-86
2023/05/01 01:41:38;;;;;;;12.13;10.83;;;;;;;11.22;87.21;98010.38;4165565;28;20636;-85
2023/05/01 01:43:45;;;;;;;9.77;8.87;;;;;;;11.24;84.34;98011.09;4168012;28;20720;-86
2023/05/01 01:45:52;;;;;;;9.67;8.77;;;;;;;11.27;86.10;98011.69;4169199;28;20617;-85
2023/05/01 01:47:56;;;;;;;10.00;8.37;;;;;;;11.33;84.34;98013.88;4154616;28;20659;-86
2023/05/01 01:50:03;;;;;;;10.10;9.10;;;;;;;11.39;84.07;98006.41;4153003;28;21106;-86
2023/05/01 01:52:08;;;;;;;9.33;8.43;;;;;;;11.37;84.78;97999.66;4144380;28;20653;-86
2023/05/01 01:54:13;;;;;;;8.20;7.40;;;;;;;11.48;82.60;98004.97;4166487;28;20672;-86
2023/05/01 01:56:17;;;;;;;8.70;7.80;;;;;;;11.54;83.35;98007.94;4171806;28;20664;-85
2023/05/01 01:58:25;;;;;;;9.37;8.33;;;;;;;11.63;81.93;98004.66;4154681;28;20696;-86
2023/05/01 02:00:28;;;;;;;9.50;8.47;;;;;;;11.70;83.11;98002.41;4166969;28;20634;-86
2023/05/01 02:02:31;;;;;;;9.17;8.23;;;;;;;11.73;83.55;97996.97;4169587;28;20629;-85
2023/05/01 02:04:36;;;;;;;10.40;8.80;;;;;;;11.75;83.76;98006.34;4168361;28;20681;-86
2023/05/01 02:06:39;;;;;;;8.67;7.80;;;;;;;11.74;81.12;97998.63;4163350;28;20638;-86
2023/05/01 02:08:47;;;;;;;9.60;8.70;;;;;;;11.78;82.28;97996.50;4175067;28;20644;-86
2023/05/01 02:10:50;;;;;;;8.20;7.50;;;;;;;11.71;81.78;97991.03;4170995;28;20636;-86
2023/05/01 02:12:55;;;;;;;9.10;8.20;;;;;;;11.81;81.03;97985.00;4170177;28;20720;-86
2023/05/01 02:14:58;;;;;;;10.80;8.33;;;;;;;11.87;81.38;97990.59;4169666;28;20715;-86
2023/05/01 02:17:02;;;;;;;10.57;9.27;;;;;;;11.86;81.86;97985.47;4172644;28;20632;-87
2023/05/01 02:19:05;;;;;;;10.43;9.43;;;;;;;11.83;81.77;97983.94;4154009;28;20720;-86
2023/05/01 02:21:09;;;;;;;9.17;8.27;;;;;;;11.82;82.20;97982.28;4156135;28;20640;-85
2023/05/01 02:23:12;;;;;;;9.03;8.23;;;;;;;11.88;81.09;97979.19;4174536;28;20627;-86
2023/05/01 02:25:17;;;;;;;9.30;8.30;;;;;;;11.90;80.51;97985.13;4168049;28;20638;-86
2023/05/01 02:27:23;;;;;;;9.10;8.20;;;;;;;11.94;81.39;97986.59;4160371;28;20728;-85
2023/05/01 02:29:26;;;;;;;9.47;8.60;;;;;;;11.95;81.24;97983.03;4162342;28;20629;-86
2023/05/01 02:31:29;;;;;;;9.60;8.70;;;;;;;11.94;81.13;97978.75;4168929;28;20994;-86
2023/05/01 02:33:32;;;;;;;10.20;9.10;;;;;;;11.93;81.79;97974.44;4153852;28;21042;-86
2023/05/01 02:35:39;;;;;;;10.17;8.97;;;;;;;11.91;80.67;97975.53;4171864;28;20663;-86
2023/05/01 02:37:43;;;;;;;12.77;9.27;;;;;;;11.92;83.38;97974.56;4168171;28;21060;-85
2023/05/01 02:39:46;;;;;;;9.33;8.40;;;;;;;11.87;81.74;97974.91;4169523;28;20628;-86
2023/05/01 02:41:53;;;;;;;11.33;10.23;;;;;;;11.84;83.08;97975.16;4171277;28;20636;-86
2023/05/01 02:44:00;;;;;;;10.90;9.73;;;;;;;11.84;82.37;97971.72;4173861;28;20641;-85
2023/05/01 02:46:04;;;;;;;10.63;9.63;;;;;;;11.83;83.05;97964.81;4173745;28;20631;-86
2023/05/01 02:48:10;;;;;;;11.00;10.00;;;;;;;11.86;82.37;97970.66;4154182;28;21111;-86
2023/05/01 02:50:14;;;;;;;10.50;9.43;;;;;;;11.86;82.92;97969.81;4178371;28;20655;-86
2023/05/01 02:52:18;;;;;;;10.10;9.10;;;;;;;11.84;81.94;97954.25;4155557;28;20633;-85
2023/05/01 02:54:24;;;;;;;9.87;8.97;;;;;;;11.83;81.31;97957.81;4170376;28;21005;-85
2023/05/01 02:56:28;;;;;;;10.60;9.60;;;;;;;11.86;82.88;97957.59;4158193;28;21103;-86
2023/05/01 02:58:33;;;;;;;10.53;9.50;;;;;;;11.89;82.17;97956.50;4169430;28;20707;-86
2023/05/01 03:00:36;;;;;;;10.13;8.60;;;;;;;11.91;81.35;97941.56;4172124;28;20634;-86
2023/05/01 03:02:39;;;;;;;10.80;9.80;;;;;;;11.83;82.67;97955.22;4179945;28;20641;-86
2023/05/01 03:04:42;;;;;;;10.77;9.67;;;;;;;11.84;82.04;97949.00;4168078;28;20694;-85
2023/05/01 03:06:46;;;;;;;10.60;8.47;;;;;;;11.86;80.98;97947.13;4168421;28;20642;-86
2023/05/01 03:08:49;;;;;;;11.00;9.27;;;;;;;11.89;80.80;97936.47;4170867;28;20667;-86
2023/05/01 03:10:52;;;;;;;10.63;9.50;;;;;;;11.91;81.47;97950.22;4170928;28;21445;-86
2023/05/01 03:12:56;;;;;;;9.73;8.40;;;;;;;11.92;80.70;97941.44;4172787;28;20636;-86
2023/05/01 03:15:00;;;;;;;8.80;7.90;;;;;;;11.99;78.93;97947.84;4169283;28;20724;-86
2023/05/01 03:17:05;;;;;;;9.63;8.73;;;;;;;11.96;79.80;97947.25;4170630;28;20663;-86
2023/05/01 03:19:09;;;;;;;9.67;8.67;;;;;;;11.93;79.04;97943.09;4155632;28;20720;-86
2023/05/01 03:21:13;;;;;;;10.93;9.43;;;;;;;11.95;80.10;97935.13;4171075;28;21037;-86
2023/05/01 03:23:16;;;;;;;9.87;8.60;;;;;;;11.93;81.16;97932.63;4172449;28;20633;-86
2023/05/01 03:25:19;;;;;;;10.40;9.40;;;;;;;11.98;79.11;97940.13;4156028;28;20724;-86
2023/05/01 03:27:23;;;;;;;9.67;8.77;;;;;;;11.99;80.86;97932.16;4159960;28;20673;-85
2023/05/01 03:29:26;;;;;;;10.10;9.00;;;;;;;12.03;81.40;97938.03;4167417;28;21294;-85
2023/05/01 03:31:31;;;;;;;9.73;8.73;;;;;;;12.04;79.58;97934.44;4162725;28;20729;-85
2023/05/01 03:33:35;;;;;;;9.33;8.40;;;;;;;12.07;77.85;97936.81;4174339;28;20656;-86
2023/05/01 03:35:38;;;;;;;10.23;8.83;;;;;;;12.14;79.86;97936.22;4155908;28;20746;-85
2023/05/01 03:37:41;;;;;;;10.13;9.17;;;;;;;12.17;78.26;97943.84;4170974;28;21035;-86
2023/05/01 03:39:46;;;;;;;9.87;8.83;;;;;;;12.21;79.24;97941.81;4168903;28;21102;-86
2023/05/01 03:42:08;;;;;;;9.87;8.87;;;;;;;12.23;78.49;97938.97;4169895;28;20650;-86
2023/05/01 03:44:15;;;;;;;10.27;9.30;;;;;;;12.25;80.22;97950.16;4168044;28;20641;-85
2023/05/01 03:46:20;;;;;;;9.07;8.17;;;;;;;12.27;79.72;97939.56;4172753;28;20633;-86
2023/05/01 03:48:24;;;;;;;8.90;8.10;;;;;;;12.28;77.76;97946.44;4154217;28;20630;-86
2023/05/01 03:50:27;;;;;;;9.13;8.23;;;;;;;12.28;78.36;97936.84;4157541;28;20650;-86
2023/05/01 03:52:30;;;;;;;10.53;8.90;;;;;;;12.28;78.37;97928.16;4173922;28;20672;-86
2023/05/01 03:54:34;;;;;;;9.13;8.30;;;;;;;12.32;77.21;97940.88;4172704;28;20637;-86
2023/05/01 03:56:49;;;;;;;10.90;8.17;;;;;;;12.35;78.85;97926.72;4172410;28;20645;-86
2023/05/01 03:58:54;;;;;;;8.77;7.87;;;;;;;12.33;75.67;97920.78;4154846;28;20692;-86
2023/05/01 04:00:59;;;;;;;8.50;7.70;;;;;;;12.34;77.09;97923.28;4164193;28;20641;-86
2023/05/01 04:03:02;;;;;;;9.20;8.20;;;;;;;12.35;78.57;97924.13;4156170;28;20656;-87
2023/05/01 04:05:09;;;;;;;8.83;8.00;;;;;;;12.37;76.51;97930.91;4171556;28;21276;-86
2023/05/01 04:07:15;;;;;;;8.23;7.47;;;;;;;12.35;76.55;97921.50;4170644;28;20669;-86
2023/05/01 04:09:19;;;;;;;13.97;9.23;;;;;;;12.37;75.43;97927.44;4171519;28;20633;-86
2023/05/01 04:11:22;;;;;;;7.70;7.00;;;;;;;12.38;76.90;97923.88;4174227;28;20664;-86
2023/05/01 04:13:26;;;;;;;7.87;7.17;;;;;;;12.36;75.86;97917.94;4150401;28;20765;-87
2023/05/01 04:15:30;;;;;;;7.90;7.17;;;;;;;12.31;76.36;97918.31;4165585;28;20661;-86
2023/05/01 04:17:33;;;;;;;8.60;7.10;;;;;;;12.28;75.70;97922.91;4152909;28;20653;-86
2023/05/01 04:19:36;;;;;;;8.20;7.40;;;;;;;12.26;75.72;97923.03;4155718;28;20641;-86
2023/05/01 04:21:41;;;;;;;8.50;7.70;;;;;;;12.23;75.19;97909.38;4171384;28;20632;-86
2023/05/01 04:23:44;;;;;;;8.20;7.40;;;;;;;12.23;75.13;97916.41;4148702;28;20985;-86
2023/05/01 04:25:47;;;;;;;9.20;7.37;;;;;;;12.21;75.08;97921.75;4168043;28;21130;-86
2023/05/01 04:27:52;;;;;;;8.93;7.17;;;;;;;12.19;75.65;97912.34;4149639;28;22020;-86
2023/05/01 04:29:56;;;;;;;8.27;7.47;;;;;;;12.23;76.40;97919.84;4168357;28;21416;-86
2023/05/01 04:32:00;;;;;;;8.70;7.90;;;;;;;12.18;76.01;97919.38;4170869;28;20762;-86
2023/05/01 04:34:03;;;;;;;8.30;7.60;;;;;;;12.20;77.35;97917.47;4168305;28;20680;-87
2023/05/01 04:36:07;;;;;;;9.23;8.33;;;;;;;12.21;77.48;97913.91;4171052;28;20656;-86
2023/05/01 04:38:11;;;;;;;10.73;8.27;;;;;;;12.26;76.54;97919.59;4168045;28;21049;-86
2023/05/01 04:40:16;;;;;;;7.73;6.93;;;;;;;12.25;75.18;97917.91;4153818;28;20634;-87
2023/05/01 04:42:19;;;;;;;8.47;7.67;;;;;;;12.23;75.66;97919.84;4169047;28;20772;-87
2023/05/01 04:44:22;;;;;;;8.80;7.87;;;;;;;12.24;75.74;97916.28;4169569;28;21043;-86
2023/05/01 04:46:26;;;;;;;12.03;7.70;;;;;;;12.33;76.88;97916.38;4181872;28;20637;-87
2023/05/01 04:48:29;;;;;;;8.40;7.60;;;;;;;12.30;75.43;97919.25;4162157;28;20633;-86
2023/05/01 04:50:32;;;;;;;8.27;7.47;;;;;;;12.27;76.33;97922.09;4155045;28;20654;-86
2023/05/01 04:52:35;;;;;;;10.40;9.00;;;;;;;12.29;76.88;97920.19;4162364;28;20634;-86
2023/05/01 04:54:40;;;;;;;8.70;7.90;;;;;;;12.32;75.89;97919.94;4154511;28;20650;-86
2023/05/01 04:56:44;;;;;;;8.87;7.63;;;;;;;12.40;77.18;97929.81;4168972;28;20665;-86
2023/05/01 04:58:47;;;;;;;9.40;7.90;;;;;;;12.45;77.61;97923.28;4167786;28;21198;-86
2023/05/01 05:00:54;;;;;;;9.30;8.27;;;;;;;12.50;77.66;97930.75;4167285;28;20640;-88
2023/05/01 05:02:59;;;;;;;10.33;8.50;;;;;;;12.54;75.97;97937.41;4174407;28;21196;-87
2023/05/01 05:05:02;;;;;;;14.73;11.00;;;;;;;12.55;77.91;97939.91;4151289;28;20665;-90
2023/05/01 05:07:07;;;;;;;10.80;9.80;;;;;;;12.57;77.18;97934.53;4154883;28;20626;-89
2023/05/01 05:09:44;;;;;;;10.23;8.87;;;;;;;12.60;79.27;97936.91;4182120;28;20624;-87
2023/05/01 05:11:47;;;;;;;10.47;9.40;;;;;;;12.60;78.98;97932.53;4172084;28;20633;-87
2023/05/01 05:13:58;;;;;;;11.97;10.87;;;;;;;12.61;80.00;97933.34;4152803;28;20674;-87
2023/05/01 05:16:01;;;;;;;11.50;10.30;;;;;;;12.60;79.65;97940.38;4171159;28;20675;-87
2023/05/01 05:18:04;;;;;;;9.97;8.97;;;;;;;12.61;80.52;97941.22;4151427;28;20640;-86
2023/05/01 05:20:09;;;;;;;10.03;9.03;;;;;;;12.66;79.42;97944.28;4150875;28;21269;-87
2023/05/01 05:22:12;;;;;;;11.20;10.10;;;;;;;12.60;79.77;97934.31;4166783;28;20629;-87
2023/05/01 05:24:35;;;;;;;11.13;8.63;;;;;;;12.58;78.17;97944.88;4164767;28;20669;-87
2023/05/01 05:26:40;;;;;;;10.27;9.33;;;;;;;12.60;79.29;97944.75;4169431;28;20634;-87
2023/05/01 05:28:44;;;;;;;9.43;8.40;;;;;;;12.65;78.11;97940.84;4153718;28;20749;-88
2023/05/01 05:30:47;;;;;;;9.67;8.67;;;;;;;12.72;78.29;97942.88;4144538;28;20642;-87
2023/05/01 05:32:54;;;;;;;11.67;9.20;;;;;;;12.79;77.46;97946.66;4165578;28;20726;-86
2023/05/01 05:34:58;;;;;;;9.93;8.93;;;;;;;12.80;79.36;97939.63;4152881;28;20691;-87
2023/05/01 05:37:02;;;;;;;12.80;8.50;;;;;;;12.82;77.80;97941.22;4169415;28;20669;-88
2023/05/01 05:39:05;;;;;;;8.20;7.40;;;;;;;12.88;77.13;97947.75;4158610;28;20619;-88
2023/05/01 05:41:09;;;;;;;10.27;7.70;;;;;;;12.91;78.21;97940.47;4169613;28;21174;-88
2023/05/01 05:43:14;;;;;;;9.90;8.80;;;;;;;12.96;78.02;97938.31;4173088;28;20640;-88
2023/05/01 05:45:17;;;;;;;9.90;8.77;;;;;;;12.99;78.26;97937.22;4154051;28;20753;-91
2023/05/01 05:47:21;;;;;;;8.40;7.60;;;;;;;13.01;78.00;97936.16;4151601;28;20696;-88
2023/05/01 05:49:24;;;;;;;9.83;8.57;;;;;;;13.04;77.75;97942.94;4161917;28;20695;-88
2023/05/01 05:51:27;;;;;;;8.33;7.53;;;;;;;13.06;76.65;97934.00;4154465;28;20647;-87
2023/05/01 05:53:31;;;;;;;8.40;7.60;;;;;;;13.08;75.64;97937.34;4173185;28;20633;-88
2023/05/01 05:55:34;;;;;;;7.70;7.00;;;;;;;13.07;76.33;97929.63;4164055;28;21019;-88
2023/05/01 05:57:39;;;;;;;7.93;7.17;;;;;;;13.08;75.68;97933.88;4158421;28;20696;-88
2023/05/01 05:59:44;;;;;;;8.33;7.53;;;;;;;13.08;76.02;97936.50;4157179;28;20645;-87
2023/05/01 06:01:49;;;;;;;8.40;7.60;;;;;;;13.08;74.45;97937.34;4170072;28;20622;-88
2023/05/01 06:03:52;;;;;;;8.63;7.83;;;;;;;13.09;74.48;97928.50;4159332;28;20635;-86
2023/05/01 06:05:57;;;;;;;10.37;7.67;;;;;;;13.11;74.20;97929.25;4150974;28;21025;-88
2023/05/01 06:08:01;;;;;;;8.50;7.60;;;;;;;13.11;75.09;97933.63;4174129;28;20661;-88
2023/05/01 06:10:04;;;;;;;10.10;7.63;;;;;;;13.08;73.35;97936.50;4179074;28;20638;-88
2023/05/01 06:12:07;;;;;;;7.83;7.03;;;;;;;13.11;73.38;97934.47;4171621;28;20692;-88
2023/05/01 06:14:11;;;;;;;8.53;7.63;;;;;;;13.12;74.61;97938.75;4155405;28;20633;-88
2023/05/01 06:16:16;;;;;;;10.63;7.53;;;;;;;13.11;75.36;97944.94;4159776;28;21194;-88
2023/05/01 06:18:19;;;;;;;8.47;7.47;;;;;;;13.12;75.45;97936.13;4162506;28;20638;-88
2023/05/01 06:20:22;;;;;;;9.50;8.47;;;;;;;13.15;75.05;97935.06;4175684;28;20695;-92
2023/05/01 06:22:26;;;;;;;7.90;7.10;;;;;;;13.17;75.18;97933.13;4162799;28;20649;-91
2023/05/01 06:24:48;;;;;;;7.40;6.70;;;;;;;13.17;73.95;97938.38;4172480;28;20632;-90
2023/05/01 06:26:51;;;;;;;8.60;7.40;;;;;;;13.13;73.59;97929.94;4176685;28;20628;-95
2023/05/01 06:28:54;;;;;;;8.10;7.17;;;;;;;13.15;73.31;97941.13;4161172;28;20743;-90
2023/05/01 06:30:58;;;;;;;10.00;6.87;;;;;;;13.13;73.98;97934.34;4183218;28;20627;-89
2023/05/01 06:33:03;;;;;;;8.20;7.40;;;;;;;13.11;73.79;97929.25;4159511;28;20633;-87
2023/05/01 06:35:08;;;;;;;7.90;7.20;;;;;;;13.11;73.11;97923.16;4154576;28;20639;-91
2023/05/01 06:37:11;;;;;;;7.70;7.00;;;;;;;13.07;73.22;97935.66;4159049;28;20651;-89
2023/05/01 06:39:15;;;;;;;8.97;8.07;;;;;;;13.08;74.01;97929.50;4165583;28;20631;-87
2023/05/01 06:41:18;;;;;;;7.50;6.80;;;;;;;13.07;73.62;97940.91;4174575;28;20997;-89
2023/05/01 06:43:21;;;;;;;8.70;7.80;;;;;;;13.04;73.98;97941.16;4175458;28;20665;-90
2023/05/01 06:45:25;;;;;;;8.00;7.20;;;;;;;13.04;74.33;97935.09;4169231;28;21218;-92
2023/05/01 06:47:28;;;;;;;8.23;7.50;;;;;;;13.07;73.61;97937.47;4154367;28;20635;-91
2023/05/01 06:49:32;;;;;;;7.57;6.77;;;;;;;13.07;74.08;97943.53;4173233;28;20649;-89
2023/05/01 06:51:36;;;;;;;8.70;7.90;;;;;;;13.05;73.21;97947.22;4168519;28;20632;-87
2023/05/01 06:53:40;;;;;;;7.60;6.80;;;;;;;13.04;74.80;97941.16;4150861;28;20630;-85
2023/05/01 06:55:43;;;;;;;8.20;7.13;;;;;;;13.08;73.48;97950.44;4151808;28;20639;-86
2023/05/01 06:57:46;;;;;;;8.30;7.50;;;;;;;13.09;74.52;97944.22;4153917;28;20742;-84
2023/05/01 06:59:49;;;;;;;8.40;7.60;;;;;;;13.08;75.11;97939.09;4167418;28;20633;-83
2023/05/01 07:01:53;;;;;;;8.70;7.90;;;;;;;13.07;73.66;97946.16;4171301;28;20695;-83
2023/05/01 07:03:56;;;;;;;14.53;12.20;;;;;;;13.10;74.07;97950.31;4175014;28;20637;-89
2023/05/01 07:06:00;;;;;;;21.47;16.70;;;;;;;13.15;74.58;97956.81;4157876;28;20651;-90
2023/05/01 07:08:05;;;;;;;30.23;20.57;;;;;;;13.20;74.45;97955.50;4173286;28;20809;-90
2023/05/01 07:10:09;;;;;;;16.30;12.23;;;;;;;13.27;75.70;97961.06;4157284;28;20668;-87
2023/05/01 07:12:12;;;;;;;9.23;8.33;;;;;;;13.33;74.18;97958.78;4171385;28;20625;-94
2023/05/01 07:14:15;;;;;;;10.33;7.33;;;;;;;13.41;74.47;97959.00;4170992;28;20853;-92
2023/05/01 07:16:19;;;;;;;8.07;7.17;;;;;;;13.50;74.95;97965.25;4159284;28;20745;-92
2023/05/01 07:18:22;;;;;;;8.63;7.20;;;;;;;13.55;74.98;97969.19;4157838;28;20662;-90
2023/05/01 07:20:29;;;;;;;7.00;6.30;;;;;;;13.61;73.54;97973.09;4168564;28;21243;-92
2023/05/01 07:22:33;;;;;;;8.47;7.53;;;;;;;13.63;74.11;97973.81;4171353;28;20638;-90
2023/05/01 07:24:36;;;;;;;7.73;6.93;;;;;;;13.69;74.18;97966.25;4170544;28;20639;-93
2023/05/01 07:26:39;;;;;;;7.93;7.13;;;;;;;13.72;74.36;97972.06;4171925;28;20689;-91
2023/05/01 07:28:42;;;;;;;7.77;7.07;;;;;;;13.73;73.85;97975.53;4173349;28;20666;-90
2023/05/01 07:30:45;;;;;;;7.57;6.87;;;;;;;13.72;74.61;97977.31;4170085;28;20693;-92
2023/05/01 07:32:49;;;;;;;7.70;6.90;;;;;;;13.73;74.23;97971.13;4171598;28;20638;-91
2023/05/01 07:34:53;;;;;;;7.70;6.87;;;;;;;13.73;74.02;97973.75;4152407;28;20706;-93
2023/05/01 07:36:56;;;;;;;7.87;7.17;;;;;;;13.78;74.11;97971.56;4157221;28;20735;-92
2023/05/01 07:39:01;;;;;;;8.43;7.57;;;;;;;13.83;73.92;97969.41;4166411;28;20659;-93
2023/05/01 07:41:04;;;;;;;7.63;6.90;;;;;;;13.82;74.51;97972.97;4167947;28;21251;-91
2023/05/01 07:43:09;;;;;;;6.87;6.17;;;;;;;13.86;74.50;97976.16;4171471;28;21611;-88
2023/05/01 07:45:13;;;;;;;9.20;8.30;;;;;;;13.92;74.32;97973.88;4181133;28;20637;-85
2023/05/01 07:47:16;;;;;;;7.43;6.73;;;;;;;13.98;74.69;97976.00;4155637;28;20636;-87
2023/05/01 07:49:19;;;;;;;7.63;6.93;;;;;;;14.04;74.43;97969.38;4154150;28;20707;-84
2023/05/01 07:51:23;;;;;;;8.10;7.30;;;;;;;14.02;73.95;97972.13;4169986;28;20654;-84
2023/05/01 07:53:26;;;;;;;8.00;7.20;;;;;;;14.01;74.02;97973.13;4169703;28;20640;-83
2023/05/01 07:55:30;;;;;;;8.20;7.30;;;;;;;14.06;74.37;97970.97;4154494;28;20644;-84
2023/05/01 07:57:35;;;;;;;9.83;7.93;;;;;;;14.08;74.43;97965.59;4170938;28;20640;-83
2023/05/01 07:59:38;;;;;;;8.23;7.40;;;;;;;14.13;74.57;97966.03;4169311;28;20639;-83
2023/05/01 08:01:41;;;;;;;8.30;7.50;;;;;;;14.20;75.24;97970.63;4172204;28;20667;-84
2023/05/01 08:03:44;;;;;;;9.63;8.70;;;;;;;14.26;76.24;97970.94;4171231;28;20660;-84
2023/05/01 08:05:51;;;;;;;9.03;8.10;;;;;;;14.32;76.87;97973.03;4168910;28;20764;-84
2023/05/01 08:07:54;;;;;;;9.20;7.93;;;;;;;14.35;73.82;97964.09;4169099;28;20638;-84
2023/05/01 08:09:59;;;;;;;7.83;7.03;;;;;;;14.37;74.13;97964.78;4163833;28;20744;-84
2023/05/01 08:12:04;;;;;;;7.80;7.10;;;;;;;14.41;73.83;97964.38;4166412;28;21261;-87
2023/05/01 08:14:08;;;;;;;8.47;7.67;;;;;;;14.43;73.91;97969.50;4150765;28;20641;-87
2023/05/01 08:16:11;;;;;;;8.60;7.80;;;;;;;14.50;75.06;97975.91;4166377;28;20842;-87
2023/05/01 08:18:19;;;;;;;9.03;8.10;;;;;;;14.52;73.86;97974.78;4151408;28;20655;-87
2023/05/01 08:20:22;;;;;;;11.13;8.33;;;;;;;14.53;74.07;97967.75;4171940;28;21501;-88
2023/05/01 08:22:25;;;;;;;9.67;8.10;;;;;;;14.56;73.86;97975.38;4174301;28;20658;-88
2023/05/01 08:24:29;;;;;;;9.07;8.07;;;;;;;14.57;73.40;97972.63;4171540;28;21055;-88
2023/05/01 08:26:32;;;;;;;8.93;8.03;;;;;;;14.61;73.72;97969.59;4173344;28;20660;-88
2023/05/01 08:28:37;;;;;;;8.87;7.97;;;;;;;14.56;74.28;97968.31;4169064;28;21254;-84
2023/05/01 08:30:40;;;;;;;9.10;8.20;;;;;;;14.59;74.20;97964.63;4165107;28;22296;-84
2023/05/01 08:32:43;;;;;;;10.27;8.80;;;;;;;14.62;75.32;97962.53;4166669;28;20697;-84
2023/05/01 08:34:46;;;;;;;8.90;8.00;;;;;;;14.68;74.78;97965.47;4153811;28;20648;-84
2023/05/01 08:36:50;;;;;;;9.43;8.50;;;;;;;14.72;75.05;97964.25;4174673;28;21270;-85
2023/05/01 08:38:53;;;;;;;9.13;8.33;;;;;;;14.74;75.07;97964.09;4169191;28;20666;-85
2023/05/01 08:40:58;;;;;;;8.83;8.03;;;;;;;14.75;74.53;97965.78;4164769;28;20657;-84
2023/05/01 08:43:02;;;;;;;9.50;8.60;;;;;;;14.80;75.66;97964.41;4169722;28;20726;-84
2023/05/01 08:45:08;;;;;;;29.23;26.07;;;;;;;14.84;75.02;97960.56;4177591;28;21210;-87
2023/05/01 08:47:15;;;;;;;9.47;8.57;;;;;;;14.93;76.50;97964.16;4157125;28;20633;-87
2023/05/01 08:49:19;;;;;;;8.60;7.67;;;;;;;14.98;76.36;97964.59;4166813;28;21046;-87
2023/05/01 08:51:24;;;;;;;16.87;15.17;;;;;;;15.04;77.04;97969.31;4168392;28;21014;-84
2023/05/01 08:53:27;;;;;;;10.85;8.13;;;;;;;15.05;76.09;97973.59;4166272;28;20762;-85
2023/05/01 08:55:31;;;;;;;8.63;7.90;;;;;;;14.99;74.62;97959.22;4166716;28;20272;-84
2023/05/01 08:57:36;;;;;;;9.50;8.70;;;;;;;15.04;74.68;97966.69;4166195;28;20743;-89
2023/05/01 08:59:40;;;;;;;8.73;7.83;;;;;;;15.04;74.73;97971.94;4159559;28;21298;-87
2023/05/01 09:01:46;;;;;;;9.17;8.27;;;;;;;15.03;74.82;97963.22;4165723;28;20644;-88
2023/05/01 09:03:51;;;;;;;9.00;8.20;;;;;;;15.03;75.37;97960.59;4173140;28;20633;-90
2023/05/01 09:05:54;;;;;;;9.50;8.37;;;;;;;15.04;74.54;97962.25;4161389;28;20660;-92
2023/05/01 09:07:58;;;;;;;9.33;7.90;;;;;;;15.04;74.73;97964.88;4144433;28;20645;-92
2023/05/01 09:10:02;;;;;;;9.90;8.97;;;;;;;15.04;75.59;97967.50;4144142;28;20651;-95
2023/05/01 09:12:11;;;;;;;10.47;9.50;;;;;;;15.05;75.26;97968.31;4167434;28;21697;-92
2023/05/01 09:14:16;;;;;;;10.73;9.63;;;;;;;15.01;75.27;97964.34;4167013;28;20737;-91
2023/05/01 09:16:19;;;;;;;10.20;8.70;;;;;;;15.06;73.88;97960.31;4164426;28;20641;-92
2023/05/01 09:18:24;;;;;;;8.97;8.07;;;;;;;15.14;74.22;97966.56;4159128;28;21116;-91
2023/05/01 09:20:28;;;;;;;9.33;8.40;;;;;;;15.23;76.00;97972.81;4168209;28;20636;-89
2023/05/01 09:22:32;;;;;;;9.00;8.10;;;;;;;15.29;75.71;97974.91;4182277;28;20686;-90
2023/05/01 09:24:36;;;;;;;9.60;8.60;;;;;;;15.34;75.74;97970.09;4156106;28;20645;-90
2023/05/01 09:26:40;;;;;;;10.70;8.50;;;;;;;15.42;73.63;97973.66;4165866;28;20646;-90
2023/05/01 09:28:45;;;;;;;8.97;8.07;;;;;;;15.43;71.71;97974.53;4170653;28;20645;-94
2023/05/01 09:30:48;;;;;;;9.00;8.10;;;;;;;15.38;73.38;97969.69;4169349;28;20713;-93
2023/05/01 09:33:04;;;;;;;20.20;15.60;;;;;;;15.45;75.25;97975.22;4164019;28;21085;-94
2023/05/01 09:35:13;;;;;;;12.10;10.83;;;;;;;15.53;75.72;97975.34;4155824;28;20632;-94
2023/05/01 09:37:27;;;;;;;21.73;19.53;;;;;;;15.61;76.30;97985.03;4169619;28;21258;-94
2023/05/01 09:39:31;;;;;;;12.00;10.90;;;;;;;15.68;75.65;97980.91;4171592;28;20656;-95
2023/05/01 09:41:35;;;;;;;10.67;8.90;;;;;;;15.76;75.31;97983.66;4171909;28;20646;-95
2023/05/01 09:43:39;;;;;;;10.47;9.47;;;;;;;15.87;76.35;97986.13;4157155;28;20640;-95
2023/05/01 09:45:42;;;;;;;9.53;8.33;;;;;;;15.99;74.43;97985.00;4168618;28;20638;-95